Time;durP1;ratioP1;P1;durP2;ratioP2;P2;SDS_P1;SDS_P2;PMS_P1;PMS_P2;Temp;Humidity;BMP_temperature;BMP_pressure;BME280_temperature;BME280_humidity;BME280_pressure;Samples;Min_cycle;Max_cycle;Signal;HPM_P1;HPM_P2
2021/05/06 00:02:03;;;;;;;15.90;2.30;;;;;;;3.94;83.14;100486.06;6297705;28;20049;-75
2021/05/06 00:08:55;;;;;;;14.27;1.98;;;;;;;3.86;82.84;100484.59;6305375;28;20132;-77
2021/05/06 00:35:15;;;;;;;11.45;2.30;;;;;;;3.69;82.72;100485.13;6296963;28;20076;-76
2021/05/06 00:38:20;;;;;;;16.33;2.55;;;;;;;3.69;82.54;100488.56;6296714;28;20118;-75
2021/05/06 00:54:53;;;;;;;17.15;2.70;;;;;;;3.64;82.54;100474.88;6296063;28;20524;-75
2021/05/06 00:58:10;;;;;;;17.80;3.30;;;;;;;3.65;82.63;100471.38;6306746;22;20053;-75
2021/05/06 01:01:21;;;;;;;14.65;3.70;;;;;;;3.64;81.70;100461.03;6270465;28;20147;-75
2021/05/06 01:04:31;;;;;;;6.85;1.77;;;;;;;3.64;82.34;100474.88;6271553;28;20432;-75
2021/05/06 01:07:58;;;;;;;13.65;4.32;;;;;;;3.64;82.60;100472.25;6247076;28;20049;-77
2021/05/06 01:11:05;;;;;;;13.52;1.98;;;;;;;3.59;81.16;100463.75;6265910;28;20049;-75
2021/05/06 01:14:10;;;;;;;16.73;4.03;;;;;;;3.61;81.76;100464.56;6271721;28;20098;-75
2021/05/06 01:17:10;;;;;;;8.57;2.38;;;;;;;3.57;81.64;100460.34;6271634;28;20048;-75
2021/05/06 01:20:13;;;;;;;17.90;2.55;;;;;;;3.55;82.31;100460.38;6272108;28;20045;-77
2021/05/06 01:23:16;;;;;;;14.65;2.42;;;;;;;3.59;83.15;100449.88;6272136;28;20524;-75
2021/05/06 01:26:22;;;;;;;13.10;2.28;;;;;;;3.59;84.43;100460.28;6271968;28;20056;-75
2021/05/06 01:29:27;;;;;;;7.25;2.03;;;;;;;3.55;85.16;100455.19;6272231;28;20045;-75
2021/05/06 01:32:31;;;;;;;15.05;2.85;;;;;;;3.50;84.77;100456.22;6271724;28;20057;-75
2021/05/06 01:35:36;;;;;;;12.77;2.00;;;;;;;3.45;85.32;100453.75;6271906;28;20491;-75
2021/05/06 01:41:57;;;;;;;16.13;2.22;;;;;;;3.35;85.84;100457.50;6269839;28;20059;-75
2021/05/06 01:45:40;;;;;;;14.57;2.78;;;;;;;3.29;85.65;100450.75;6271584;28;20049;-75
2021/05/06 01:48:54;;;;;;;13.55;2.83;;;;;;;3.31;85.36;100451.53;6271507;28;20511;-75
2021/05/06 01:58:44;;;;;;;14.18;2.90;;;;;;;3.40;85.17;100453.03;6271479;28;20124;-75
2021/05/06 02:01:45;;;;;;;11.27;2.22;;;;;;;3.43;84.15;100447.75;6271448;28;20045;-75
2021/05/06 02:04:46;;;;;;;18.40;2.78;;;;;;;3.44;84.37;100448.59;6271156;28;20107;-76
2021/05/06 02:07:48;;;;;;;22.02;3.08;;;;;;;3.37;83.62;100447.94;6275812;28;20044;-75
2021/05/06 02:10:53;;;;;;;4.90;2.22;;;;;;;3.37;84.00;100441.91;6276281;28;20041;-75
2021/05/06 02:13:56;;;;;;;13.98;3.17;;;;;;;3.42;85.24;100446.06;6276141;28;20493;-76
2021/05/06 02:16:57;;;;;;;7.18;2.20;;;;;;;3.37;85.22;100442.75;6276166;28;20452;-75
2021/05/06 02:19:58;;;;;;;12.73;2.17;;;;;;;3.41;85.83;100446.09;6276009;28;20059;-76
2021/05/06 02:23:01;;;;;;;9.38;2.05;;;;;;;3.42;85.57;100432.22;6276211;28;20049;-76
2021/05/06 02:26:03;;;;;;;13.50;2.63;;;;;;;3.40;84.88;100434.84;6276031;28;20095;-75
2021/05/06 02:29:04;;;;;;;9.60;2.35;;;;;;;3.49;84.90;100433.72;6275458;28;20140;-75
2021/05/06 02:32:06;;;;;;;9.98;2.30;;;;;;;3.51;84.94;100435.41;6275493;28;20163;-76
2021/05/06 02:35:08;;;;;;;14.90;2.65;;;;;;;3.54;84.54;100432.72;6275448;28;20485;-75
2021/05/06 02:38:08;;;;;;;16.10;2.72;;;;;;;3.54;85.67;100426.63;6275522;28;20057;-75
2021/05/06 02:41:10;;;;;;;11.02;2.45;;;;;;;3.61;83.87;100415.19;6275319;28;20060;-75
2021/05/06 02:44:11;;;;;;;9.55;2.15;;;;;;;3.60;84.43;100410.03;6274992;28;20056;-75
2021/05/06 02:47:12;;;;;;;11.32;2.88;;;;;;;3.70;84.27;100421.84;6275349;28;20410;-76
2021/05/06 02:50:15;;;;;;;9.48;2.10;;;;;;;3.69;84.04;100415.81;6275517;28;20064;-75
2021/05/06 02:53:18;;;;;;;10.60;3.28;;;;;;;3.79;83.08;100416.38;6275041;28;20041;-75
2021/05/06 02:56:26;;;;;;;3.53;1.50;;;;;;;3.75;84.43;100414.75;6275116;28;20144;-76
2021/05/06 03:02:42;;;;;;;12.13;2.20;;;;;;;3.74;84.17;100408.72;6275111;28;20489;-76
2021/05/06 03:02:56;;;;;;;9.07;2.10;;;;;;;3.74;83.83;100408.72;6274554;28;20179;-75
2021/05/06 03:05:57;;;;;;;15.02;3.13;;;;;;;3.76;82.96;100403.47;6275459;28;20049;-75
2021/05/06 03:09:00;;;;;;;9.75;2.15;;;;;;;3.80;83.07;100416.31;6274726;28;20544;-75
2021/05/06 03:12:12;;;;;;;7.93;2.60;;;;;;;3.73;82.88;100413.97;6274756;28;20049;-75
2021/05/06 03:25:23;;;;;;;9.50;2.30;;;;;;;3.69;84.64;100415.81;6274040;28;20497;-75
2021/05/06 03:28:30;;;;;;;15.52;2.17;;;;;;;3.70;83.67;100411.47;6274078;28;20649;-75
2021/05/06 03:31:50;;;;;;;10.02;1.92;;;;;;;3.67;82.34;100417.59;6273890;28;20045;-75
2021/05/06 03:35:04;;;;;;;12.02;3.05;;;;;;;3.73;81.53;100416.56;6273512;28;20455;-75
2021/05/06 03:41:46;;;;;;;12.00;2.45;;;;;;;3.91;80.38;100423.81;6273483;28;20049;-74
2021/05/06 03:45:07;;;;;;;10.70;2.30;;;;;;;3.84;81.59;100421.44;6273546;28;20049;-75
2021/05/06 04:18:06;;;;;;;8.38;1.75;;;;;;;4.04;79.04;100440.72;6273877;28;20088;-75
2021/05/06 04:21:31;;;;;;;9.82;2.42;;;;;;;4.41;76.98;100436.94;6273978;28;20040;-75
2021/05/06 04:27:58;;;;;;;9.20;2.25;;;;;;;4.36;78.61;100446.66;6273511;28;20612;-74
2021/05/06 04:31:18;;;;;;;16.70;2.40;;;;;;;4.14;80.31;100441.28;6275636;28;20410;-75
2021/05/06 04:37:40;;;;;;;10.77;1.90;;;;;;;4.08;82.34;100442.31;6274692;28;20569;-75
2021/05/06 04:41:05;;;;;;;7.90;2.10;;;;;;;4.24;82.73;100452.22;6274266;28;20047;-74
2021/05/06 04:54:24;;;;;;;7.03;2.55;;;;;;;3.71;89.05;100468.56;6249976;28;20134;-74
2021/05/06 04:57:40;;;;;;;8.15;3.03;;;;;;;3.51;90.04;100461.38;6271534;28;20500;-75
2021/05/06 05:04:04;;;;;;;7.53;2.80;;;;;;;3.16;94.39;100462.34;6271942;28;20045;-75
2021/05/06 05:07:12;;;;;;;4.25;2.42;;;;;;;3.29;93.62;100460.28;6271533;28;20127;-74
2021/05/06 05:10:33;;;;;;;5.93;2.78;;;;;;;3.25;94.90;100464.69;6271576;28;20052;-73
2021/05/06 05:13:45;;;;;;;11.07;2.95;;;;;;;3.20;95.03;100465.72;6271264;28;20048;-75
2021/05/06 05:20:10;;;;;;;10.02;3.25;;;;;;;3.26;95.66;100463.78;6270678;28;20489;-75
2021/05/06 05:23:33;;;;;;;6.05;2.55;;;;;;;3.14;94.93;100460.72;6268212;28;20155;-75
2021/05/06 05:26:34;;;;;;;10.27;3.50;;;;;;;3.09;97.10;100460.84;6268857;28;20109;-75
2021/05/06 05:29:35;;;;;;;9.23;3.60;;;;;;;3.10;97.97;100448.72;6271056;28;20040;-75
2021/05/06 05:32:35;;;;;;;7.90;3.33;;;;;;;3.16;99.50;100438.16;6271286;28;20128;-75
2021/05/06 05:35:40;;;;;;;10.15;4.18;;;;;;;3.20;100.00;100434.56;6270637;28;20052;-74
2021/05/06 05:38:58;;;;;;;5.22;3.25;;;;;;;3.26;100.00;100437.81;6271921;28;20046;-74
2021/05/06 05:42:16;;;;;;;8.05;3.88;;;;;;;3.33;100.00;100430.72;6275312;28;20091;-75
2021/05/06 05:45:46;;;;;;;9.82;3.60;;;;;;;3.43;100.00;100433.91;6276174;28;20049;-74
2021/05/06 05:55:22;;;;;;;8.50;3.80;;;;;;;3.65;100.00;100423.75;6242283;28;20448;-75
2021/05/06 05:58:23;;;;;;;13.07;4.30;;;;;;;3.70;100.00;100429.66;6275706;28;20064;-75
2021/05/06 06:01:24;;;;;;;10.27;4.03;;;;;;;3.63;100.00;100436.75;6275613;28;20041;-77
2021/05/06 06:04:25;;;;;;;6.28;3.72;;;;;;;3.64;100.00;100432.44;6274775;28;20056;-75
2021/05/06 06:07:26;;;;;;;11.23;4.70;;;;;;;3.63;100.00;100439.34;6275600;28;20140;-75
2021/05/06 06:10:28;;;;;;;8.65;3.97;;;;;;;3.65;100.00;100447.13;6275585;28;20102;-75
2021/05/06 06:13:29;;;;;;;9.32;4.07;;;;;;;3.67;100.00;100443.56;6275129;28;20512;-75
2021/05/06 06:16:31;;;;;;;8.30;3.55;;;;;;;3.74;100.00;100446.84;6275520;28;20136;-75
2021/05/06 06:19:35;;;;;;;9.35;4.03;;;;;;;3.62;99.88;100452.41;6275007;28;20533;-75
2021/05/06 06:22:36;;;;;;;6.78;3.95;;;;;;;3.59;100.00;100448.16;6274942;28;20424;-75
2021/05/06 06:25:38;;;;;;;13.80;4.28;;;;;;;3.62;100.00;100444.59;6274782;28;20049;-75
2021/05/06 06:28:40;;;;;;;10.15;4.40;;;;;;;3.67;100.00;100442.72;6274837;28;20509;-75
2021/05/06 06:31:44;;;;;;;13.60;4.30;;;;;;;3.70;99.14;100446.09;6275169;28;20094;-75
2021/05/06 06:34:45;;;;;;;10.27;3.53;;;;;;;3.74;99.45;100437.31;6274653;28;20136;-75
2021/05/06 06:37:46;;;;;;;8.30;4.10;;;;;;;3.84;100.00;100444.81;6274708;28;20132;-75
2021/05/06 06:40:47;;;;;;;10.05;3.90;;;;;;;3.90;99.96;100442.03;6274810;28;20067;-74
2021/05/06 06:43:51;;;;;;;7.75;4.00;;;;;;;4.00;99.23;100436.50;6273950;28;20053;-75
2021/05/06 06:47:01;;;;;;;9.60;3.63;;;;;;;4.08;99.98;100451.84;6273076;28;20136;-75
2021/05/06 06:50:02;;;;;;;6.95;3.40;;;;;;;4.25;98.71;100444.38;6274093;28;20098;-75
2021/05/06 06:53:03;;;;;;;12.40;4.25;;;;;;;4.38;98.09;100444.84;6273887;28;20497;-75
2021/05/06 06:56:05;;;;;;;10.00;3.92;;;;;;;4.43;95.41;100442.94;6274231;28;20090;-75
2021/05/06 06:59:06;;;;;;;6.97;3.45;;;;;;;4.47;93.80;100447.13;6316671;22;20079;-76
2021/05/06 07:02:07;;;;;;;10.75;4.25;;;;;;;4.54;93.48;100439.94;6308301;28;20131;-77
2021/05/06 07:05:09;;;;;;;10.25;3.90;;;;;;;4.47;92.41;100438.47;6324228;28;20052;-77
2021/05/06 07:08:11;;;;;;;7.60;3.83;;;;;;;4.47;92.26;100441.94;6301453;28;20483;-77
2021/05/06 07:11:13;;;;;;;13.02;4.20;;;;;;;4.59;91.67;100445.88;6300074;28;20135;-78
2021/05/06 07:14:14;;;;;;;12.32;3.92;;;;;;;4.59;90.64;100435.47;6299316;28;20113;-77
2021/05/06 07:17:15;;;;;;;5.57;3.30;;;;;;;4.75;90.89;100441.84;6299516;28;20052;-77
2021/05/06 07:20:16;;;;;;;9.50;3.40;;;;;;;4.87;90.13;100447.53;6299024;28;20385;-78
2021/05/06 07:23:18;;;;;;;7.05;3.83;;;;;;;4.89;89.18;100445.72;6299469;28;20052;-77
2021/05/06 07:26:20;;;;;;;11.93;3.75;;;;;;;4.85;89.44;100439.78;6321093;28;20048;-76
2021/05/06 07:29:21;;;;;;;7.90;4.00;;;;;;;4.86;90.93;100441.50;6341806;28;20462;-76
2021/05/06 07:32:22;;;;;;;10.50;3.95;;;;;;;5.28;88.86;100435.66;6323827;28;20523;-72
2021/05/06 07:35:23;;;;;;;9.27;3.75;;;;;;;5.48;87.55;100440.97;6345487;28;20043;-76
2021/05/06 07:38:24;;;;;;;9.95;3.95;;;;;;;5.48;87.19;100438.34;6348835;28;20047;-77
2021/05/06 07:41:26;;;;;;;6.40;4.05;;;;;;;5.69;86.52;100452.34;6347430;28;20091;-77
2021/05/06 07:44:27;;;;;;;8.18;3.55;;;;;;;5.76;84.02;100447.75;6323333;28;20051;-77
2021/05/06 07:47:28;;;;;;;17.50;6.55;;;;;;;5.67;84.01;100450.69;6323477;28;20058;-77
2021/05/06 07:50:29;;;;;;;10.27;3.90;;;;;;;5.82;84.76;100448.38;6323892;28;20044;-78
2021/05/06 07:53:38;;;;;;;13.13;4.43;;;;;;;5.71;86.09;100455.75;6323182;28;20052;-78
2021/05/06 07:56:40;;;;;;;8.15;3.90;;;;;;;5.97;83.96;100453.94;6323770;28;20044;-78
2021/05/06 07:59:41;;;;;;;14.95;4.38;;;;;;;6.02;84.28;100450.22;6324123;28;20048;-77
2021/05/06 08:02:43;;;;;;;10.25;4.18;;;;;;;6.09;84.90;100450.84;6323379;28;20455;-79
2021/05/06 08:05:44;;;;;;;15.68;5.65;;;;;;;6.03;81.79;100440.63;6322369;28;20060;-77
2021/05/06 08:08:45;;;;;;;11.98;4.13;;;;;;;5.99;80.60;100457.31;6323216;28;20078;-78
2021/05/06 08:11:47;;;;;;;9.27;3.78;;;;;;;5.99;82.13;100455.56;6323552;28;20051;-79
2021/05/06 08:14:49;;;;;;;7.82;3.47;;;;;;;5.98;82.41;100466.91;6323593;28;20074;-80
2021/05/06 08:17:50;;;;;;;14.82;7.25;;;;;;;5.89;82.60;100466.38;6323510;28;20100;-77
2021/05/06 08:20:51;;;;;;;10.02;4.32;;;;;;;5.90;79.36;100468.06;6323179;28;20044;-80
2021/05/06 08:23:52;;;;;;;5.82;4.07;;;;;;;5.77;80.56;100463.34;6322588;28;20445;-79
2021/05/06 08:26:55;;;;;;;7.25;4.13;;;;;;;6.00;81.45;100465.09;6322854;28;20054;-77
2021/05/06 08:29:56;;;;;;;14.15;4.68;;;;;;;6.28;81.04;100462.25;6322909;28;20384;-80
2021/05/06 08:32:57;;;;;;;10.93;4.20;;;;;;;6.43;80.06;100465.13;6323329;28;20040;-77
2021/05/06 08:35:58;;;;;;;12.68;4.40;;;;;;;6.74;76.99;100467.34;6323471;28;20059;-80
2021/05/06 08:38:59;;;;;;;7.65;3.85;;;;;;;6.75;77.08;100466.41;6323070;28;20075;-79
2021/05/06 08:42:01;;;;;;;9.68;4.03;;;;;;;6.64;78.36;100463.41;6322801;28;20048;-77
2021/05/06 08:45:03;;;;;;;9.82;3.92;;;;;;;6.51;77.21;100469.13;6322102;28;20048;-78
2021/05/06 08:48:05;;;;;;;7.78;3.70;;;;;;;6.35;75.70;100466.28;6321970;28;20048;-77
2021/05/06 08:51:06;;;;;;;7.53;3.05;;;;;;;6.75;74.95;100463.81;6322959;28;20059;-77
2021/05/06 08:54:07;;;;;;;4.47;2.90;;;;;;;6.88;71.10;100454.53;6322311;28;20482;-77
2021/05/06 08:57:09;;;;;;;8.82;2.78;;;;;;;6.92;68.41;100458.72;6321336;28;20047;-77
2021/05/06 09:00:11;;;;;;;5.95;2.33;;;;;;;6.82;66.89;100466.09;6321139;28;20506;-77
2021/05/06 09:03:13;;;;;;;9.23;2.28;;;;;;;6.93;66.36;100467.41;6321952;28;20500;-77
2021/05/06 09:06:17;;;;;;;9.85;3.08;;;;;;;6.84;68.93;100453.81;6322234;28;20138;-77
2021/05/06 09:09:18;;;;;;;9.82;3.60;;;;;;;7.37;68.89;100463.69;6321952;28;20420;-77
2021/05/06 09:12:36;;;;;;;14.43;5.20;;;;;;;7.07;71.60;100472.88;6321482;28;20048;-77
2021/05/06 09:15:47;;;;;;;5.85;3.05;;;;;;;6.58;72.79;100474.94;6321644;28;20054;-78
2021/05/06 09:18:48;;;;;;;5.78;2.75;;;;;;;6.46;72.41;100471.09;6321925;28;20093;-78
2021/05/06 09:21:49;;;;;;;7.72;3.03;;;;;;;6.47;73.68;100471.94;6321820;28;20233;-78
2021/05/06 09:24:49;;;;;;;9.35;3.88;;;;;;;6.45;74.91;100472.00;6321358;28;20075;-79
2021/05/06 09:28:04;;;;;;;9.43;4.35;;;;;;;6.36;75.68;100475.00;6321831;28;20048;-77
2021/05/06 09:31:08;;;;;;;9.05;3.60;;;;;;;6.48;76.39;100477.09;6321848;28;20428;-78
2021/05/06 09:34:11;;;;;;;5.38;2.78;;;;;;;6.85;72.90;100467.72;6321753;28;20059;-77
2021/05/06 09:37:21;;;;;;;11.90;2.60;;;;;;;6.98;66.36;100462.81;6321998;28;20044;-77
2021/05/06 09:40:22;;;;;;;7.45;3.42;;;;;;;7.38;66.36;100457.53;6321785;28;20040;-78
2021/05/06 09:43:26;;;;;;;4.30;2.65;;;;;;;7.60;65.25;100459.19;6321330;28;20182;-76
2021/05/06 09:46:30;;;;;;;9.52;4.22;;;;;;;7.71;64.88;100451.69;6321940;28;20142;-75
2021/05/06 09:49:38;;;;;;;5.95;2.63;;;;;;;7.78;66.78;100455.75;6322049;28;20079;-80
2021/05/06 09:52:55;;;;;;;3.75;2.40;;;;;;;7.89;65.35;100457.84;6322417;28;20066;-79
2021/05/06 09:55:57;;;;;;;6.50;2.40;;;;;;;7.85;63.39;100449.28;6321993;28;20051;-81
2021/05/06 09:58:59;;;;;;;12.05;3.17;;;;;;;7.86;66.72;100458.00;6321572;28;20052;-78
2021/05/06 10:02:07;;;;;;;8.50;3.78;;;;;;;8.05;66.72;100458.81;6321560;28;20040;-71
2021/05/06 10:05:11;;;;;;;11.18;3.35;;;;;;;8.21;64.47;100463.31;6321921;28;20060;-79
2021/05/06 10:08:12;;;;;;;12.18;2.97;;;;;;;8.26;63.75;100459.56;6322210;28;20059;-82
2021/05/06 10:11:17;;;;;;;7.68;2.70;;;;;;;8.32;60.15;100454.03;6324526;28;20044;-78
2021/05/06 10:14:21;;;;;;;13.80;3.05;;;;;;;8.23;60.35;100451.03;6320836;28;20044;-78
2021/05/06 10:17:31;;;;;;;6.28;2.95;;;;;;;8.30;62.57;100449.78;6321017;28;20055;-79
2021/05/06 10:20:43;;;;;;;5.00;3.17;;;;;;;8.63;59.71;100448.19;6322951;28;20388;-82
2021/05/06 10:24:17;;;;;;;8.60;2.75;;;;;;;8.93;57.05;100455.38;6321923;28;20044;-81
2021/05/06 10:27:20;;;;;;;7.03;3.35;;;;;;;8.58;57.06;100442.31;6324916;28;20492;-80
2021/05/06 10:30:23;;;;;;;10.35;2.38;;;;;;;8.72;58.29;100435.50;6326855;28;20047;-81
2021/05/06 10:33:26;;;;;;;6.78;2.60;;;;;;;8.49;60.07;100444.53;6326526;28;20081;-84
2021/05/06 10:36:27;;;;;;;7.03;3.35;;;;;;;8.53;60.47;100452.16;6326309;28;20054;-83
2021/05/06 10:39:37;;;;;;;5.20;3.00;;;;;;;8.43;58.74;100443.06;6326373;28;20416;-84
2021/05/06 10:42:37;;;;;;;7.20;3.30;;;;;;;8.19;60.79;100447.69;6326891;28;20055;-82
2021/05/06 10:45:39;;;;;;;5.93;2.95;;;;;;;8.42;60.15;100454.47;6326728;28;20071;-81
2021/05/06 10:49:01;;;;;;;6.40;3.50;;;;;;;8.53;59.87;100440.84;6325926;28;20535;-81
2021/05/06 10:52:04;;;;;;;5.85;3.00;;;;;;;8.91;57.91;100438.06;6326083;28;20121;-79
2021/05/06 10:55:09;;;;;;;8.48;4.15;;;;;;;8.98;57.37;100440.28;6325203;28;20059;-81
2021/05/06 10:58:35;;;;;;;9.45;3.20;;;;;;;8.92;58.14;100450.25;6324807;28;20523;-81
2021/05/06 11:01:42;;;;;;;10.38;3.75;;;;;;;9.10;55.38;100442.28;6325134;28;20047;-79
2021/05/06 11:04:43;;;;;;;6.18;3.17;;;;;;;9.44;56.90;100437.00;6325952;28;20048;-82
2021/05/06 11:08:16;;;;;;;6.90;3.17;;;;;;;9.46;54.39;100424.69;6326182;28;20409;-80
2021/05/06 11:11:18;;;;;;;7.10;2.85;;;;;;;9.00;54.93;100438.44;6325772;28;20044;-82
2021/05/06 11:14:27;;;;;;;8.10;2.70;;;;;;;8.77;57.11;100431.75;6325687;28;20094;-82
2021/05/06 11:17:40;;;;;;;5.55;3.00;;;;;;;9.21;54.80;100430.38;6325667;28;20052;-84
2021/05/06 11:20:47;;;;;;;7.00;3.03;;;;;;;9.78;55.60;100420.28;6325622;28;20518;-81
2021/05/06 11:24:26;;;;;;;5.55;3.30;;;;;;;10.53;54.65;100414.25;6325154;28;20519;-80
2021/05/06 11:27:34;;;;;;;12.88;3.25;;;;;;;10.40;52.19;100416.78;6342308;28;20393;-81
2021/05/06 11:30:37;;;;;;;4.85;3.33;;;;;;;9.97;53.87;100415.69;6351646;28;20043;-84
2021/05/06 11:33:39;;;;;;;7.88;3.10;;;;;;;10.26;53.89;100408.81;6350205;28;20047;-83
2021/05/06 11:37:18;;;;;;;6.68;2.70;;;;;;;10.37;52.91;100402.97;6351314;28;20044;-85
2021/05/06 11:40:26;;;;;;;8.05;2.90;;;;;;;10.57;53.36;100404.41;6350920;28;20047;-82
2021/05/06 11:43:27;;;;;;;21.33;4.25;;;;;;;10.46;51.81;100398.97;6350690;28;20051;-84
2021/05/06 11:46:30;;;;;;;6.05;2.58;;;;;;;10.78;49.86;100402.31;6344401;28;20059;-81
2021/05/06 11:49:31;;;;;;;7.25;3.45;;;;;;;10.82;50.74;100401.19;6325175;28;20048;-85
2021/05/06 11:52:33;;;;;;;6.38;2.83;;;;;;;10.84;51.11;100386.16;6324958;28;20048;-86
2021/05/06 11:55:41;;;;;;;4.53;2.72;;;;;;;11.19;53.24;100389.28;6324134;28;20059;-84
2021/05/06 11:58:42;;;;;;;4.22;2.90;;;;;;;10.98;50.49;100382.69;6322535;28;20400;-73
2021/05/06 12:01:44;;;;;;;6.75;3.17;;;;;;;10.34;51.16;100390.84;6323735;28;20044;-81
2021/05/06 12:04:51;;;;;;;5.88;3.13;;;;;;;10.06;53.42;100396.81;6323754;28;20406;-81
2021/05/06 12:08:03;;;;;;;4.47;2.90;;;;;;;9.98;54.30;100395.53;6324817;28;20072;-81
2021/05/06 12:11:04;;;;;;;7.53;3.33;;;;;;;9.77;53.21;100389.75;6325081;28;20075;-80
2021/05/06 12:14:06;;;;;;;6.38;2.70;;;;;;;9.51;54.51;100386.75;6323697;28;20052;-80
2021/05/06 12:17:08;;;;;;;5.88;2.90;;;;;;;9.80;54.26;100385.16;6323664;28;20440;-80
2021/05/06 12:20:10;;;;;;;8.27;2.92;;;;;;;10.68;51.78;100393.28;6323548;28;20044;-79
2021/05/06 12:23:11;;;;;;;4.35;2.13;;;;;;;11.42;46.82;100375.53;6326115;28;20048;-83
2021/05/06 12:26:16;;;;;;;4.75;2.25;;;;;;;11.61;49.72;100367.31;6333990;28;20143;-82
2021/05/06 12:29:22;;;;;;;5.38;2.90;;;;;;;12.04;48.58;100374.28;6323301;28;20063;-82
2021/05/06 12:32:24;;;;;;;5.30;2.45;;;;;;;12.36;46.51;100365.09;6323498;28;20044;-79
2021/05/06 12:35:26;;;;;;;3.85;2.20;;;;;;;12.83;48.10;100358.38;6324793;28;20040;-81
2021/05/06 12:38:29;;;;;;;8.45;2.67;;;;;;;12.66;45.45;100367.44;6322926;28;20048;-81
2021/05/06 12:41:30;;;;;;;3.38;2.50;;;;;;;11.91;46.52;100366.34;6314546;28;20044;-81
2021/05/06 12:44:39;;;;;;;7.07;3.65;;;;;;;11.26;51.88;100371.31;6323006;28;20048;-81
2021/05/06 12:47:43;;;;;;;4.88;2.92;;;;;;;10.89;52.81;100366.53;6323105;28;20047;-82
2021/05/06 12:50:45;;;;;;;5.07;2.75;;;;;;;10.35;53.15;100373.31;6322550;28;20056;-82
2021/05/06 12:54:01;;;;;;;4.78;2.55;;;;;;;10.21;54.17;100370.59;6322332;28;20148;-81
2021/05/06 12:57:40;;;;;;;4.38;2.70;;;;;;;9.77;53.60;100389.75;6321384;28;20052;-81
2021/05/06 13:00:41;;;;;;;6.20;2.72;;;;;;;9.12;61.80;100381.88;6322502;28;20040;-78
2021/05/06 13:04:11;;;;;;;4.57;2.60;;;;;;;9.06;66.55;100377.81;6322944;28;20089;-82
2021/05/06 13:07:14;;;;;;;4.70;3.05;;;;;;;8.92;67.66;100380.31;6327583;22;20045;-75
2021/05/06 13:10:30;;;;;;;7.05;2.65;;;;;;;9.16;69.81;100378.19;6269511;28;20037;-76
2021/05/06 13:13:40;;;;;;;4.43;2.72;;;;;;;10.15;66.24;100370.03;6278389;28;20060;-76
2021/05/06 13:16:44;;;;;;;;;;;;;;;10.07;61.83;100364.38;6273056;28;20053;-75
2021/05/06 13:19:45;;;;;;;4.63;2.45;;;;;;;10.25;58.52;100365.13;6266192;28;19920;-76
2021/05/06 13:23:04;;;;;;;3.83;2.33;;;;;;;10.63;58.68;100359.41;6258484;28;20053;-76
2021/05/06 13:26:06;;;;;;;3.47;2.53;;;;;;;10.52;57.11;100356.56;6269455;28;20525;-76
2021/05/06 13:29:09;;;;;;;3.55;2.17;;;;;;;10.64;57.70;100354.06;6267054;28;20041;-75
2021/05/06 13:32:10;;;;;;;3.45;2.63;;;;;;;10.65;55.23;100347.84;6271553;28;20122;-76
2021/05/06 13:35:16;;;;;;;3.88;2.28;;;;;;;10.44;57.28;100338.63;6277546;28;20052;-78
2021/05/06 13:38:18;;;;;;;3.53;2.55;;;;;;;10.36;55.64;100348.75;6283284;28;20045;-76
2021/05/06 13:41:20;;;;;;;4.07;2.70;;;;;;;10.79;54.70;100347.00;6273368;28;20489;-77
2021/05/06 13:44:23;;;;;;;2.78;1.98;;;;;;;11.02;55.67;100337.72;6275536;28;20049;-77
2021/05/06 13:47:28;;;;;;;4.82;2.50;;;;;;;11.36;51.09;100333.00;6277036;28;20060;-77
2021/05/06 13:50:31;;;;;;;4.45;2.85;;;;;;;11.19;51.17;100331.44;6273696;28;20061;-77
2021/05/06 13:53:33;;;;;;;3.60;2.70;;;;;;;10.58;53.82;100330.78;6270468;28;20517;-77
2021/05/06 13:56:33;;;;;;;5.20;2.88;;;;;;;10.45;52.18;100335.06;6273904;28;20053;-78
2021/05/06 13:59:34;;;;;;;5.07;3.45;;;;;;;9.93;60.01;100324.94;6266871;28;20057;-77
2021/05/06 14:02:35;;;;;;;4.03;3.10;;;;;;;9.91;57.58;100325.03;6284266;28;20053;-77
2021/05/06 14:05:36;;;;;;;6.57;3.22;;;;;;;10.14;57.04;100313.19;6279964;28;20049;-77
2021/05/06 14:08:38;;;;;;;3.80;2.95;;;;;;;10.63;55.70;100317.38;6283060;28;20136;-77
2021/05/06 14:11:39;;;;;;;3.97;2.92;;;;;;;10.92;54.92;100316.41;6276088;28;20056;-78
2021/05/06 14:14:40;;;;;;;4.50;2.92;;;;;;;10.77;54.20;100309.47;6280238;28;20056;-77
2021/05/06 14:17:41;;;;;;;5.68;3.40;;;;;;;10.75;53.98;100306.09;6296001;28;20461;-77
2021/05/06 14:20:43;;;;;;;9.30;3.55;;;;;;;10.85;53.57;100304.56;6300324;28;20071;-77
2021/05/06 14:23:45;;;;;;;6.13;3.00;;;;;;;10.91;54.19;100298.97;6274329;28;20055;-77
2021/05/06 14:26:48;;;;;;;4.80;3.33;;;;;;;11.25;51.64;100306.50;6276728;28;20126;-77
2021/05/06 14:29:49;;;;;;;8.50;3.10;;;;;;;11.18;48.90;100299.03;6276891;28;20045;-77
2021/05/06 14:32:50;;;;;;;10.30;4.43;;;;;;;11.27;52.29;100296.75;6277041;28;20051;-76
2021/05/06 14:35:51;;;;;;;6.78;3.28;;;;;;;11.20;52.54;100292.81;6299872;28;20090;-78
2021/05/06 14:38:54;;;;;;;4.45;2.97;;;;;;;11.30;52.58;100283.38;6299647;28;20076;-77
2021/05/06 14:41:56;;;;;;;4.47;2.83;;;;;;;11.45;52.91;100279.78;6274872;28;20149;-80
2021/05/06 14:44:57;;;;;;;3.95;3.17;;;;;;;11.71;48.80;100278.06;6261462;28;20648;-80
2021/05/06 14:47:58;;;;;;;3.55;2.80;;;;;;;11.58;49.13;100279.81;6264923;28;20053;-79
2021/05/06 14:51:01;;;;;;;12.60;5.22;;;;;;;11.20;48.37;100275.25;6270533;28;20048;-78
2021/05/06 14:54:03;;;;;;;5.57;3.35;;;;;;;10.78;51.92;100270.91;6270773;28;20041;-79
2021/05/06 14:57:05;;;;;;;4.70;3.17;;;;;;;10.99;51.08;100273.97;6273572;28;20048;-78
2021/05/06 15:00:08;;;;;;;4.95;3.00;;;;;;;10.83;53.73;100279.34;6272504;28;20052;-77
2021/05/06 15:03:09;;;;;;;3.78;2.30;;;;;;;10.51;59.27;100279.53;6273260;28;20048;-78
2021/05/06 15:06:10;;;;;;;7.25;2.47;;;;;;;10.36;59.55;100296.22;6269876;28;20051;-76
2021/05/06 15:09:12;;;;;;;2.95;1.80;;;;;;;9.64;62.16;100313.47;6270732;28;20041;-78
2021/05/06 15:12:14;;;;;;;6.05;2.10;;;;;;;9.33;65.28;100306.47;6265383;28;20040;-79
2021/05/06 15:15:16;;;;;;;6.40;2.00;;;;;;;9.19;66.49;100309.84;6269811;28;20045;-78
2021/05/06 15:18:16;;;;;;;3.55;2.10;;;;;;;9.19;66.83;100303.78;6270884;28;20041;-75
2021/05/06 15:21:17;;;;;;;6.95;2.50;;;;;;;9.05;67.16;100294.88;6273467;28;20115;-77
2021/05/06 15:24:19;;;;;;;5.85;2.05;;;;;;;9.38;68.43;100289.56;6263839;28;20126;-75
2021/05/06 15:27:20;;;;;;;8.55;4.65;;;;;;;9.68;68.53;100280.91;6271239;28;20099;-78
2021/05/06 15:30:22;;;;;;;3.50;2.25;;;;;;;9.54;66.02;100268.56;6273526;28;20049;-77
2021/05/06 15:33:23;;;;;;;8.10;2.72;;;;;;;9.24;71.62;100272.91;6268874;28;20448;-77
2021/05/06 15:36:24;;;;;;;3.85;2.30;;;;;;;9.40;67.95;100266.72;6270223;28;20056;-78
2021/05/06 15:39:26;;;;;;;8.40;2.40;;;;;;;9.14;69.06;100264.69;6265697;28;20049;-79
2021/05/06 15:42:27;;;;;;;5.63;2.40;;;;;;;9.19;69.90;100261.81;6264115;28;20429;-77
2021/05/06 15:45:28;;;;;;;5.93;2.47;;;;;;;9.23;70.64;100255.50;6268206;28;20049;-77
2021/05/06 15:48:29;;;;;;;5.38;2.80;;;;;;;9.31;69.88;100250.63;6273898;28;20060;-78
2021/05/06 15:51:30;;;;;;;10.02;2.80;;;;;;;9.21;70.34;100250.31;6269839;28;20048;-78
2021/05/06 15:54:32;;;;;;;3.88;2.42;;;;;;;9.28;68.23;100254.28;6273075;28;20637;-79
2021/05/06 15:57:35;;;;;;;4.10;2.40;;;;;;;9.27;67.26;100252.59;6266896;28;20539;-78
2021/05/06 16:00:36;;;;;;;5.63;3.28;;;;;;;9.13;66.30;100263.03;6271870;28;20053;-77
2021/05/06 16:03:45;;;;;;;4.82;2.67;;;;;;;9.15;66.25;100248.88;6271299;28;20083;-78
2021/05/06 16:06:46;;;;;;;4.88;3.35;;;;;;;8.99;67.77;100242.78;6279934;28;20049;-78
2021/05/06 16:09:47;;;;;;;5.68;2.60;;;;;;;9.02;68.51;100253.09;6265463;28;20065;-78
2021/05/06 16:12:49;;;;;;;9.60;3.17;;;;;;;9.07;67.10;100245.81;6262081;28;20048;-78
2021/05/06 16:15:49;;;;;;;8.27;3.45;;;;;;;9.27;67.90;100246.53;6268022;28;20049;-78
2021/05/06 16:18:50;;;;;;;4.88;3.30;;;;;;;9.29;65.61;100236.78;6271857;28;20049;-78
2021/05/06 16:21:51;;;;;;;6.22;3.28;;;;;;;9.16;66.13;100239.22;6268997;28;20045;-78
2021/05/06 16:24:53;;;;;;;4.28;3.15;;;;;;;9.24;68.49;100247.53;6266198;28;20050;-78
2021/05/06 16:27:54;;;;;;;7.13;3.53;;;;;;;9.25;67.30;100238.72;6263509;28;20051;-78
2021/05/06 16:30:54;;;;;;;5.45;3.70;;;;;;;9.18;66.25;100239.16;6268264;28;20053;-77